Time;durP1;ratioP1;P1;durP2;ratioP2;P2;SDS_P1;SDS_P2;PMS_P1;PMS_P2;Temp;Humidity;BMP_temperature;BMP_pressure;BME280_temperature;BME280_humidity;BME280_pressure;Samples;Min_cycle;Max_cycle;Signal;HPM_P1;HPM_P2
2022/06/13 00:00:29;;;;;;;11.98;4.63;;;;;;;17.37;63.87;101956.38;5024386;28;20061;-48
2022/06/13 00:03:17;;;;;;;12.95;4.78;;;;;;;17.35;64.31;101950.31;5018479;28;20092;-48
2022/06/13 00:06:05;;;;;;;14.73;5.13;;;;;;;17.30;64.30;101953.09;5028106;28;20444;-47
2022/06/13 00:08:52;;;;;;;13.77;4.80;;;;;;;17.24;64.27;101940.47;5017058;28;20416;-49
2022/06/13 00:11:40;;;;;;;11.95;4.88;;;;;;;17.16;64.59;101943.84;5031445;28;20048;-48
2022/06/13 00:14:28;;;;;;;12.10;4.60;;;;;;;17.06;65.20;101946.66;5023432;28;20515;-48
2022/06/13 00:17:15;;;;;;;14.52;5.20;;;;;;;16.99;65.56;101942.28;5031330;28;20046;-49
2022/06/13 00:19:56;;;;;;;13.75;5.47;;;;;;;16.93;65.80;101937.91;5033316;28;20093;-50
2022/06/13 00:22:44;;;;;;;14.55;5.22;;;;;;;16.86;66.39;101942.06;5034419;28;20057;-45
2022/06/13 00:25:31;;;;;;;12.50;5.20;;;;;;;16.77;67.05;101937.13;5032327;28;20053;-46
2022/06/13 00:28:19;;;;;;;14.95;5.05;;;;;;;16.77;66.94;101936.31;5031919;28;20491;-46
2022/06/13 00:31:06;;;;;;;12.05;4.93;;;;;;;16.78;67.27;101937.94;5034739;28;20049;-45
2022/06/13 00:33:54;;;;;;;13.02;4.97;;;;;;;16.82;67.17;101947.31;5034376;28;20046;-46
2022/06/13 00:36:42;;;;;;;12.50;4.68;;;;;;;16.89;66.94;101934.06;5022981;28;20511;-46
2022/06/13 00:39:19;;;;;;;13.30;5.20;;;;;;;16.97;66.54;101938.16;5027922;28;20045;-49
2022/06/13 00:42:07;;;;;;;13.38;5.00;;;;;;;17.02;65.94;101929.88;5028943;28;20045;-46
2022/06/13 00:44:38;;;;;;;11.10;4.35;;;;;;;17.08;66.27;101927.91;5034132;28;20492;-46
2022/06/13 00:47:25;;;;;;;16.38;5.00;;;;;;;17.12;65.83;101927.03;5023306;28;20052;-47
2022/06/13 00:50:38;;;;;;;14.05;4.95;;;;;;;17.15;65.86;101922.88;5022621;28;20538;-48
2022/06/13 00:53:28;;;;;;;13.02;5.43;;;;;;;17.14;65.98;101911.06;5017556;28;20042;-46
2022/06/13 00:56:18;;;;;;;12.30;5.05;;;;;;;17.13;66.03;101911.38;5023518;28;20046;-48
2022/06/13 00:59:18;;;;;;;14.05;4.97;;;;;;;17.13;65.92;101914.94;5019760;28;20046;-47
2022/06/13 01:02:06;;;;;;;15.80;4.70;;;;;;;17.12;65.70;101924.28;5016704;28;20041;-51
2022/06/13 01:04:56;;;;;;;12.02;4.47;;;;;;;17.11;65.94;101916.31;5005764;28;20056;-50
2022/06/13 01:07:45;;;;;;;16.20;5.32;;;;;;;17.12;65.66;101917.97;5015804;28;20034;-47
2022/06/13 01:14:09;;;;;;;15.45;5.13;;;;;;;17.11;65.94;101919.91;5028926;28;20054;-48
2022/06/13 01:17:34;;;;;;;11.82;4.88;;;;;;;17.11;65.95;101917.16;5024531;28;20045;-50
2022/06/13 01:20:34;;;;;;;10.73;4.57;;;;;;;17.12;65.76;101912.44;5032872;28;20045;-48
2022/06/13 01:23:55;;;;;;;10.45;4.70;;;;;;;17.12;66.01;101912.44;5022734;28;20046;-50
2022/06/13 01:27:28;;;;;;;12.30;4.65;;;;;;;17.09;66.22;101913.03;5016534;28;20049;-49
2022/06/13 01:30:53;;;;;;;11.15;4.82;;;;;;;17.07;66.41;101909.72;5011655;28;20053;-49
2022/06/13 01:34:02;;;;;;;10.95;5.13;;;;;;;17.03;66.76;101909.50;5025941;28;20052;-54
2022/06/13 01:37:12;;;;;;;12.65;5.22;;;;;;;17.05;66.51;101915.50;5026660;28;20042;-52
2022/06/13 01:40:18;;;;;;;12.93;5.20;;;;;;;17.03;66.80;101915.81;5021800;28;20056;-53
2022/06/13 01:43:22;;;;;;;13.10;5.18;;;;;;;17.02;66.91;101908.66;5023473;28;20056;-50
2022/06/13 01:46:16;;;;;;;11.43;4.57;;;;;;;17.01;66.89;101907.03;5028097;28;20046;-53
2022/06/13 01:49:22;;;;;;;12.57;4.95;;;;;;;16.98;66.83;101907.59;5032804;28;20053;-52
2022/06/13 01:52:31;;;;;;;13.00;4.53;;;;;;;16.97;66.90;101900.44;5029789;28;20049;-52
2022/06/13 01:55:40;;;;;;;10.65;4.78;;;;;;;16.99;67.21;101902.91;5021107;28;20057;-49
2022/06/13 01:58:31;;;;;;;11.75;4.60;;;;;;;16.97;67.38;101905.13;5014978;28;20073;-51
2022/06/13 02:01:44;;;;;;;14.30;4.45;;;;;;;16.97;67.40;101910.63;5029139;28;20056;-49
2022/06/13 02:04:34;;;;;;;10.13;4.72;;;;;;;16.94;67.61;101905.69;5017961;28;20060;-49
2022/06/13 02:07:27;;;;;;;11.40;4.93;;;;;;;16.92;67.44;101913.41;5006747;28;20037;-48
2022/06/13 02:10:07;;;;;;;19.58;5.28;;;;;;;16.89;67.80;101909.31;5013302;28;20042;-48
2022/06/13 02:13:11;;;;;;;11.85;4.70;;;;;;;16.89;67.42;101909.31;5014874;28;20044;-49
2022/06/13 02:16:00;;;;;;;13.77;5.20;;;;;;;16.88;68.02;101915.88;5011250;28;20053;-47
2022/06/13 02:19:21;;;;;;;12.32;5.32;;;;;;;16.85;67.60;101919.22;5014654;28;20116;-48
2022/06/13 02:22:20;;;;;;;11.30;4.93;;;;;;;16.82;68.16;101917.03;5018743;28;20046;-47
2022/06/13 02:25:25;;;;;;;13.43;5.13;;;;;;;16.81;68.36;101912.63;5023527;28;20408;-49
2022/06/13 02:28:35;;;;;;;12.93;5.10;;;;;;;16.81;68.30;101909.88;5019273;28;20046;-47
2022/06/13 02:31:37;;;;;;;13.70;4.70;;;;;;;16.82;68.53;101892.28;5024187;28;20053;-47
2022/06/13 02:34:35;;;;;;;12.05;5.10;;;;;;;16.82;68.65;101889.53;5030745;28;20076;-47
2022/06/13 02:37:31;;;;;;;12.40;5.38;;;;;;;16.84;68.64;101884.56;5024766;28;20046;-48
2022/06/13 02:40:33;;;;;;;14.48;5.18;;;;;;;16.81;68.31;101891.47;5021792;28;20439;-48
2022/06/13 02:43:26;;;;;;;13.85;5.13;;;;;;;16.80;68.63;101899.97;5021922;28;20078;-49
2022/06/13 02:46:34;;;;;;;13.70;5.00;;;;;;;16.78;68.95;101897.50;5011220;28;20053;-47
2022/06/13 02:49:42;;;;;;;13.48;5.65;;;;;;;16.77;69.09;101901.34;5015818;28;20045;-48
2022/06/13 02:52:55;;;;;;;13.95;5.10;;;;;;;16.77;69.15;101895.03;5029897;28;20056;-50
2022/06/13 02:55:47;;;;;;;14.95;5.90;;;;;;;16.76;69.74;101890.59;5023169;28;20037;-49
2022/06/13 02:58:54;;;;;;;15.68;5.68;;;;;;;16.74;69.72;101885.41;5024812;28;20038;-49
2022/06/13 03:01:44;;;;;;;13.95;5.50;;;;;;;16.74;69.88;101881.81;5022027;28;20488;-50
2022/06/13 03:04:40;;;;;;;13.40;5.28;;;;;;;16.74;69.97;101879.91;5031405;28;20088;-52
2022/06/13 03:07:40;;;;;;;14.10;5.30;;;;;;;16.75;69.87;101880.72;5027128;28;20085;-48
2022/06/13 03:10:38;;;;;;;19.73;6.78;;;;;;;16.72;70.68;101886.81;5026432;28;20045;-48
2022/06/13 03:14:13;;;;;;;16.40;6.63;;;;;;;16.71;70.66;101887.88;5022628;28;20045;-50
2022/06/13 03:17:42;;;;;;;13.55;5.40;;;;;;;16.68;70.91;101893.97;5013827;28;20061;-48
2022/06/13 03:20:36;;;;;;;13.20;5.07;;;;;;;16.66;71.30;101894.25;5024481;28;20042;-49
2022/06/13 03:23:40;;;;;;;16.60;5.57;;;;;;;16.65;71.79;101889.03;5033893;28;20052;-47
2022/06/13 03:26:31;;;;;;;17.63;5.63;;;;;;;16.64;71.98;101901.13;5035429;28;20103;-51
2022/06/13 03:29:32;;;;;;;15.40;5.90;;;;;;;16.60;72.03;101901.69;5033680;28;20041;-46
2022/06/13 03:32:26;;;;;;;14.73;5.30;;;;;;;16.57;72.12;101896.78;5025420;28;20046;-46
2022/06/13 03:35:15;;;;;;;17.40;6.47;;;;;;;16.54;72.45;101900.06;5032926;28;20631;-46
2022/06/13 03:38:05;;;;;;;15.77;5.95;;;;;;;16.52;72.32;101899.53;5026087;28;20041;-45
2022/06/13 03:40:55;;;;;;;17.95;6.13;;;;;;;16.50;72.82;101903.66;5023388;28;20037;-48
2022/06/13 03:44:08;;;;;;;13.48;5.85;;;;;;;16.48;72.95;101908.66;5020445;28;20046;-48
2022/06/13 03:47:05;;;;;;;17.02;6.25;;;;;;;16.44;73.15;101913.88;5030668;28;20103;-47
2022/06/13 03:50:08;;;;;;;13.18;5.65;;;;;;;16.39;73.30;101916.66;5023607;28;20125;-47
2022/06/13 03:53:04;;;;;;;15.75;5.93;;;;;;;16.35;73.71;101912.81;5024138;28;20045;-49
2022/06/13 03:56:19;;;;;;;15.65;6.03;;;;;;;16.36;73.62;101911.72;5032915;28;20045;-49
2022/06/13 03:59:13;;;;;;;16.67;6.68;;;;;;;16.36;73.63;101917.22;5028821;28;20042;-48
2022/06/13 04:02:00;;;;;;;14.40;5.95;;;;;;;16.33;73.83;101912.25;5004742;28;20103;-48
2022/06/13 04:04:49;;;;;;;13.73;5.88;;;;;;;16.31;74.31;101915.31;5027455;28;20038;-48
2022/06/13 04:07:38;;;;;;;17.40;6.60;;;;;;;16.32;74.33;101916.13;5019506;28;20049;-47
2022/06/13 04:10:25;;;;;;;15.70;6.60;;;;;;;16.31;74.79;101914.47;5021027;28;20057;-46
2022/06/13 04:13:23;;;;;;;14.73;6.63;;;;;;;16.28;74.77;101924.09;5015860;28;20069;-49
2022/06/13 04:16:36;;;;;;;15.48;6.47;;;;;;;16.29;75.00;101922.19;5028987;28;20049;-48
2022/06/13 04:19:39;;;;;;;17.40;6.63;;;;;;;16.27;75.02;101924.38;5039142;28;20077;-50
2022/06/13 04:22:40;;;;;;;16.23;6.65;;;;;;;16.26;75.52;101933.72;5029370;28;20057;-46
2022/06/13 04:25:46;;;;;;;18.40;7.28;;;;;;;16.26;75.20;101933.72;5035299;28;20049;-53
2022/06/13 04:28:43;;;;;;;19.48;6.72;;;;;;;16.26;75.75;101933.72;5031824;28;20046;-48
2022/06/13 04:31:32;;;;;;;16.55;6.57;;;;;;;16.26;75.36;101939.22;5024100;28;20499;-50
2022/06/13 04:34:25;;;;;;;17.27;7.28;;;;;;;16.23;75.90;101940.59;5019305;28;20042;-49
2022/06/13 04:37:13;;;;;;;17.13;6.43;;;;;;;16.21;76.43;101944.75;5016397;28;20056;-47
2022/06/13 04:40:05;;;;;;;20.05;7.07;;;;;;;16.21;76.44;101953.00;5030793;28;20404;-50
2022/06/13 04:42:54;;;;;;;14.95;7.03;;;;;;;16.21;76.78;101944.75;5021506;28;20038;-48
2022/06/13 04:45:51;;;;;;;17.85;7.03;;;;;;;16.19;76.87;101945.03;5034538;28;20072;-48
2022/06/13 04:48:41;;;;;;;17.20;6.55;;;;;;;16.18;77.59;101951.63;5015656;28;20078;-48
2022/06/13 04:51:32;;;;;;;16.27;6.43;;;;;;;16.16;77.84;101940.91;5025143;28;20437;-47
2022/06/13 04:54:26;;;;;;;18.33;7.38;;;;;;;16.15;77.89;101942.00;5019056;28;20045;-49
2022/06/13 04:57:15;;;;;;;19.70;7.10;;;;;;;16.18;78.48;101944.19;5031517;28;20056;-45
2022/06/13 05:00:08;;;;;;;20.90;7.35;;;;;;;16.19;78.62;101945.84;5026507;28;20046;-48
2022/06/13 05:02:57;;;;;;;18.65;6.75;;;;;;;16.18;78.85;101949.69;5027235;28;20140;-48
2022/06/13 05:05:46;;;;;;;17.25;6.85;;;;;;;16.19;79.09;101945.84;5028202;28;20050;-49
2022/06/13 05:08:40;;;;;;;18.83;7.43;;;;;;;16.19;79.12;101956.03;5026389;28;20049;-49
2022/06/13 05:11:37;;;;;;;17.00;6.78;;;;;;;16.22;79.55;101960.16;5020901;28;20052;-49
2022/06/13 05:14:34;;;;;;;15.40;6.20;;;;;;;16.25;79.53;101962.34;5019451;28;20048;-47
2022/06/13 05:17:43;;;;;;;17.92;6.90;;;;;;;16.25;79.77;101960.41;5030304;28;20053;-48
2022/06/13 05:20:50;;;;;;;15.98;6.97;;;;;;;16.29;79.57;101964.25;5033293;28;20056;-49
2022/06/13 05:23:47;;;;;;;18.50;7.18;;;;;;;16.34;79.95;101968.94;5019806;28;20048;-49
2022/06/13 05:26:35;;;;;;;21.88;7.68;;;;;;;16.39;80.11;101966.16;5014456;28;20052;-49
2022/06/13 05:29:25;;;;;;;19.90;7.75;;;;;;;16.40;80.14;101974.16;5020151;28;20053;-50
2022/06/13 05:32:13;;;;;;;19.30;7.28;;;;;;;16.39;80.80;101977.97;5032918;28;20053;-50
2022/06/13 05:35:03;;;;;;;19.95;7.07;;;;;;;16.37;80.95;101977.44;5027069;28;20049;-51
2022/06/13 05:37:52;;;;;;;20.38;6.65;;;;;;;16.35;81.52;101976.88;5021200;28;20057;-48
2022/06/13 05:40:39;;;;;;;16.70;6.43;;;;;;;16.39;81.99;101988.16;5023907;28;20417;-52
2022/06/13 05:43:27;;;;;;;16.02;7.10;;;;;;;16.40;81.68;101984.28;5026314;28;20049;-49
2022/06/13 05:46:31;;;;;;;25.67;7.73;;;;;;;16.40;82.44;101984.28;4318834;28;10000774;-49
2022/06/13 05:49:19;;;;;;;18.00;7.22;;;;;;;16.41;82.31;101985.97;5010143;28;20050;-50
2022/06/13 05:52:06;;;;;;;19.27;7.20;;;;;;;16.41;81.98;101996.97;5015973;28;20133;-49
2022/06/13 05:54:54;;;;;;;18.70;8.05;;;;;;;16.42;82.27;101992.28;5025624;28;20041;-50
2022/06/13 05:57:44;;;;;;;20.75;7.57;;;;;;;16.43;82.32;101994.78;5016228;28;20571;-49
2022/06/13 06:00:37;;;;;;;18.95;7.57;;;;;;;16.44;82.18;101999.16;5029373;28;20068;-49
2022/06/13 06:03:25;;;;;;;19.90;7.28;;;;;;;16.44;82.34;102007.41;5022626;28;20046;-50
2022/06/13 06:06:39;;;;;;;24.10;8.52;;;;;;;16.45;82.41;102014.56;5010279;28;20500;-50
2022/06/13 06:09:26;;;;;;;23.40;8.35;;;;;;;16.46;82.61;102016.22;5025689;28;20484;-51
2022/06/13 06:12:14;;;;;;;17.33;8.32;;;;;;;16.45;82.81;102019.22;5009233;28;20057;-52
2022/06/13 06:15:02;;;;;;;17.85;7.70;;;;;;;16.46;83.31;102027.22;5026933;28;20053;-49
2022/06/13 06:17:49;;;;;;;19.58;6.72;;;;;;;16.50;82.89;102030.22;5016504;28;20073;-51
2022/06/13 06:20:44;;;;;;;23.02;8.15;;;;;;;16.53;82.59;102038.75;5033175;28;20639;-51
2022/06/13 06:23:32;;;;;;;19.30;7.22;;;;;;;16.55;80.53;102033.81;5032211;28;20045;-51
2022/06/13 06:26:22;;;;;;;20.42;6.40;;;;;;;16.59;78.82;102034.88;5030623;28;20487;-49
2022/06/13 06:29:06;;;;;;;18.33;6.32;;;;;;;16.51;76.69;102040.13;5026878;28;20432;-51
2022/06/13 06:31:54;;;;;;;16.20;6.05;;;;;;;16.49;76.47;102040.41;5021448;28;20472;-50
2022/06/13 06:34:41;;;;;;;18.13;6.15;;;;;;;16.47;74.66;102036.28;5028381;28;20052;-51
2022/06/13 06:37:29;;;;;;;18.23;6.05;;;;;;;16.44;74.84;102050.59;5023304;28;20041;-48
2022/06/13 06:40:19;;;;;;;15.10;5.05;;;;;;;16.43;74.87;102049.78;5012943;28;20056;-49
2022/06/13 06:43:07;;;;;;;19.08;5.57;;;;;;;16.41;75.20;102049.22;5012952;28;20053;-48
2022/06/13 06:45:54;;;;;;;21.35;5.20;;;;;;;16.40;74.02;102056.66;5012885;28;20576;-49
2022/06/13 06:48:42;;;;;;;15.98;5.05;;;;;;;16.42;73.20;102061.88;5023908;28;20057;-49
2022/06/13 06:51:30;;;;;;;23.80;5.18;;;;;;;16.41;72.42;102057.47;5024418;28;20049;-49
2022/06/13 07:00:29;;;;;;;16.00;4.68;;;;;;;16.40;71.16;102055.81;5026030;28;20048;-49
2022/06/13 07:03:17;;;;;;;13.77;4.43;;;;;;;16.45;71.48;102058.59;5021199;28;20100;-49
2022/06/13 07:06:07;;;;;;;14.82;4.10;;;;;;;16.52;68.93;102064.59;5023885;28;20115;-49
2022/06/13 07:08:54;;;;;;;13.98;3.63;;;;;;;16.53;67.76;102060.75;5028532;28;20412;-47
2022/06/13 07:11:54;;;;;;;13.27;4.30;;;;;;;16.50;66.92;102077.00;5022561;28;20049;-48
2022/06/13 07:14:41;;;;;;;14.40;4.20;;;;;;;16.50;66.87;102071.50;5029949;28;20599;-52
2022/06/13 07:17:29;;;;;;;14.55;4.25;;;;;;;16.52;67.23;102061.03;5022038;28;20049;-48
2022/06/13 07:20:17;;;;;;;12.48;3.90;;;;;;;16.58;64.17;102068.19;5030759;28;20057;-48
2022/06/13 07:23:06;;;;;;;10.52;3.25;;;;;;;16.55;62.20;102080.56;5019083;28;20054;-50
2022/06/13 07:25:53;;;;;;;8.88;3.40;;;;;;;16.53;62.48;102077.28;5021923;28;20042;-48
2022/06/13 07:28:41;;;;;;;9.73;2.85;;;;;;;16.57;61.62;102092.13;5020518;28;20050;-50
2022/06/13 07:31:48;;;;;;;11.05;3.28;;;;;;;16.64;61.54;102080.00;5030613;28;20049;-48
2022/06/13 07:34:38;;;;;;;9.93;3.42;;;;;;;16.60;62.09;102077.00;5028540;28;20053;-51
2022/06/13 07:40:33;;;;;;;9.18;2.83;;;;;;;16.72;61.88;102082.19;5014476;28;20495;-51
2022/06/13 07:43:33;;;;;;;10.05;3.55;;;;;;;16.80;61.93;102081.66;5027934;28;20054;-49
2022/06/13 07:46:25;;;;;;;10.27;3.33;;;;;;;16.81;60.39;102088.78;5031563;28;20041;-48
2022/06/13 07:49:13;;;;;;;22.92;6.88;;;;;;;16.84;64.79;102088.25;5020897;28;20045;-55
2022/06/13 07:52:01;;;;;;;35.72;10.45;;;;;;;17.08;68.74;102082.94;5034570;28;20446;-52
2022/06/13 07:54:48;;;;;;;13.35;3.20;;;;;;;17.22;61.22;102081.25;5033125;28;20514;-51
2022/06/13 07:57:37;;;;;;;15.38;3.80;;;;;;;17.11;60.88;102079.63;5033042;28;20057;-48
2022/06/13 08:00:30;;;;;;;10.27;2.95;;;;;;;17.05;60.93;102094.50;5017178;28;20492;-50
2022/06/13 08:03:20;;;;;;;11.65;3.30;;;;;;;16.99;61.28;102095.66;5025316;28;20526;-50
2022/06/13 08:06:08;;;;;;;12.27;3.55;;;;;;;16.95;61.19;102097.31;5023145;28;20053;-51
2022/06/13 08:08:55;;;;;;;9.77;3.38;;;;;;;16.93;61.33;102108.63;5028444;28;20057;-50
2022/06/13 08:11:47;;;;;;;12.60;3.40;;;;;;;16.97;61.28;102104.19;5033211;28;20068;-50
2022/06/13 08:14:35;;;;;;;11.90;3.38;;;;;;;16.99;61.45;102109.41;5031833;28;20044;-49
2022/06/13 08:17:22;;;;;;;12.88;3.58;;;;;;;17.01;61.83;102108.03;5026716;28;20057;-50
2022/06/13 08:20:11;;;;;;;11.65;3.63;;;;;;;17.10;63.02;102110.19;5036014;28;20053;-49
2022/06/13 08:23:00;;;;;;;11.23;3.20;;;;;;;17.17;62.26;102128.09;5029670;28;20050;-50
2022/06/13 08:25:49;;;;;;;13.70;3.20;;;;;;;17.16;59.27;102122.84;5019961;28;20057;-50
2022/06/13 08:28:37;;;;;;;11.60;2.63;;;;;;;17.18;58.53;102131.66;5024027;28;20511;-51
2022/06/13 08:31:26;;;;;;;7.85;2.95;;;;;;;17.21;59.07;102131.91;5029384;28;20042;-51
2022/06/13 08:34:14;;;;;;;9.32;2.90;;;;;;;17.21;59.25;102128.34;5033494;28;20080;-47
2022/06/13 08:37:01;;;;;;;8.35;2.60;;;;;;;17.27;57.30;102132.75;5019912;28;20053;-47
2022/06/13 08:39:31;;;;;;;8.88;2.72;;;;;;;17.32;57.46;102149.25;5029013;28;20107;-49
2022/06/13 08:42:59;;;;;;;9.18;2.88;;;;;;;17.36;57.80;102133.78;5033937;28;20083;-45
2022/06/13 08:46:32;;;;;;;11.90;3.40;;;;;;;17.39;59.04;102151.66;5031732;28;20041;-50
2022/06/13 08:49:51;;;;;;;10.20;3.22;;;;;;;17.32;60.42;102140.97;5031603;28;20046;-47
2022/06/13 08:53:02;;;;;;;12.48;2.95;;;;;;;17.23;59.84;102140.72;5021132;28;20099;-48
2022/06/13 08:56:12;;;;;;;9.73;2.88;;;;;;;17.20;58.84;102151.50;5033421;28;20057;-51
2022/06/13 08:59:24;;;;;;;9.43;2.63;;;;;;;17.07;59.65;102143.81;5030173;28;20048;-47
2022/06/13 09:02:06;;;;;;;6.32;2.35;;;;;;;16.98;59.90;102166.41;5029776;28;20497;-47
2022/06/13 09:05:11;;;;;;;5.28;2.28;;;;;;;17.01;60.17;102154.84;5026098;28;20404;-49
2022/06/13 09:08:21;;;;;;;8.57;2.28;;;;;;;17.13;58.07;102156.47;5020762;28;20057;-48
2022/06/13 09:11:33;;;;;;;5.93;2.20;;;;;;;17.19;56.55;102167.16;5030696;28;20050;-49
2022/06/13 09:14:36;;;;;;;7.97;2.35;;;;;;;17.22;56.11;102183.16;5031207;28;20484;-52
2022/06/13 09:17:21;;;;;;;4.80;1.90;;;;;;;17.24;56.00;102175.44;5033863;28;20072;-48
2022/06/13 09:20:17;;;;;;;9.32;2.60;;;;;;;17.20;56.29;102170.78;5003373;28;20057;-50
2022/06/13 09:23:39;;;;;;;8.48;2.35;;;;;;;17.30;56.60;102167.16;5031689;28;20141;-50
2022/06/13 09:26:39;;;;;;;5.45;1.70;;;;;;;17.38;56.34;102172.09;5023013;28;20048;-49
2022/06/13 09:29:57;;;;;;;9.23;2.42;;;;;;;17.41;56.86;102163.25;5020653;28;20046;-50
2022/06/13 09:32:57;;;;;;;11.85;2.78;;;;;;;17.38;57.11;102170.13;5032895;28;20053;-48
2022/06/13 09:35:57;;;;;;;11.23;2.70;;;;;;;17.38;57.08;102172.91;4999475;28;20042;-49
2022/06/13 09:39:06;;;;;;;7.82;2.42;;;;;;;17.36;57.16;102172.34;5021093;28;20503;-49
2022/06/13 09:41:56;;;;;;;10.45;2.50;;;;;;;17.43;57.29;102175.63;5020123;28;20049;-48
2022/06/13 09:45:02;;;;;;;9.73;2.30;;;;;;;17.52;56.82;102175.88;5032604;28;20507;-49
2022/06/13 09:48:12;;;;;;;7.63;2.47;;;;;;;17.58;54.35;102190.47;5029681;28;20053;-49
2022/06/13 09:51:22;;;;;;;7.57;1.85;;;;;;;17.59;52.86;102181.91;5020698;28;20415;-51
2022/06/13 09:54:39;;;;;;;9.40;2.08;;;;;;;17.67;54.28;102172.22;5030788;28;20133;-50
2022/06/13 09:57:38;;;;;;;8.35;2.05;;;;;;;17.71;53.67;102183.53;5027336;28;20034;-52
2022/06/13 10:00:52;;;;;;;7.65;2.30;;;;;;;17.69;51.88;102172.78;5032655;28;20373;-50
2022/06/13 10:03:52;;;;;;;7.60;1.80;;;;;;;17.80;51.37;102179.94;5015589;28;20551;-53
2022/06/13 10:07:04;;;;;;;8.32;2.25;;;;;;;17.79;51.90;102185.69;5022233;28;20046;-54
2022/06/13 10:10:10;;;;;;;10.82;2.40;;;;;;;17.70;52.06;102201.16;5026390;28;20045;-48
2022/06/13 10:13:15;;;;;;;7.88;2.85;;;;;;;17.76;53.58;102192.59;5012418;28;20542;-47
2022/06/13 10:16:27;;;;;;;4.68;1.88;;;;;;;17.66;51.38;102204.50;5026254;28;20443;-49
2022/06/13 10:19:47;;;;;;;8.13;2.10;;;;;;;17.70;53.25;102192.88;5025781;28;20057;-49
2022/06/13 10:22:49;;;;;;;10.20;2.65;;;;;;;17.68;53.71;102201.47;5016419;28;20497;-49
2022/06/13 10:25:51;;;;;;;8.70;2.40;;;;;;;17.61;54.07;102203.69;5023756;28;20496;-47
2022/06/13 10:28:55;;;;;;;8.38;2.20;;;;;;;17.57;54.01;102199.84;5013548;28;20046;-48
2022/06/13 10:31:48;;;;;;;10.00;2.67;;;;;;;17.57;53.60;102206.19;5021188;28;20042;-48
2022/06/13 10:35:33;;;;;;;9.70;2.70;;;;;;;17.55;53.46;102205.63;5026026;28;20049;-49
2022/06/13 10:38:42;;;;;;;12.35;2.65;;;;;;;17.62;54.76;102200.63;5006280;28;20042;-50
2022/06/13 10:41:32;;;;;;;8.18;2.35;;;;;;;17.76;54.13;102202.81;5010576;28;20049;-48
2022/06/13 10:44:21;;;;;;;9.93;2.67;;;;;;;17.85;52.83;102201.97;5022026;28;20120;-53
2022/06/13 10:47:20;;;;;;;11.10;2.50;;;;;;;17.88;51.86;102206.06;4320790;28;10000437;-47
2022/06/13 10:50:11;;;;;;;7.82;2.50;;;;;;;17.91;52.73;102205.50;5010624;28;20054;-51
2022/06/13 10:53:02;;;;;;;7.18;1.98;;;;;;;17.93;53.18;102197.78;5029169;28;20084;-50
2022/06/13 10:55:53;;;;;;;9.63;2.25;;;;;;;18.05;53.20;102200.19;5026172;28;20058;-51
2022/06/13 10:58:47;;;;;;;4.95;2.05;;;;;;;18.04;52.23;102204.91;5019884;28;20570;-51
2022/06/13 11:01:35;;;;;;;7.45;2.13;;;;;;;17.97;51.16;102203.56;5013244;28;20065;-48
2022/06/13 11:04:24;;;;;;;8.05;2.22;;;;;;;17.90;51.24;102223.16;5014030;28;20045;-49
2022/06/13 11:07:14;;;;;;;7.18;2.33;;;;;;;17.84;51.76;102211.31;5025121;28;20060;-52
2022/06/13 11:10:02;;;;;;;7.38;2.17;;;;;;;17.85;52.96;102217.69;5028785;28;20409;-49
2022/06/13 11:12:51;;;;;;;6.35;2.03;;;;;;;17.96;52.94;102215.69;5031714;28;20060;-50
2022/06/13 11:22:37;;;;;;;6.25;1.80;;;;;;;18.00;52.87;102212.06;5026079;28;20512;-53
2022/06/13 11:25:31;;;;;;;6.95;2.25;;;;;;;17.97;51.50;102209.06;5020897;28;20053;-51
2022/06/13 11:28:22;;;;;;;9.43;2.20;;;;;;;18.13;52.81;102213.38;5020210;28;20048;-52
2022/06/13 11:31:18;;;;;;;7.65;2.15;;;;;;;18.17;49.84;102211.69;5015541;28;20058;-49
2022/06/13 11:34:38;;;;;;;6.93;2.25;;;;;;;18.22;50.63;102214.41;5030764;28;20046;-50
2022/06/13 11:37:25;;;;;;;6.25;1.98;;;;;;;18.21;48.93;102204.50;5023458;28;20045;-46
2022/06/13 11:40:17;;;;;;;5.45;1.92;;;;;;;18.28;49.36;102205.03;5030331;28;20442;-50
2022/06/13 11:43:07;;;;;;;8.23;2.08;;;;;;;18.29;48.14;102217.69;5032029;28;20061;-47
2022/06/13 11:45:57;;;;;;;8.85;2.20;;;;;;;18.30;49.58;102208.31;5022945;28;20420;-46
2022/06/13 11:48:49;;;;;;;8.10;2.20;;;;;;;18.42;49.06;102196.06;5014781;28;20057;-50
2022/06/13 11:52:08;;;;;;;7.63;2.40;;;;;;;18.40;50.76;102217.63;5011207;28;20065;-50
2022/06/13 11:54:56;;;;;;;11.35;2.78;;;;;;;18.43;51.03;102236.38;5021780;28;20164;-50
2022/06/13 11:57:51;;;;;;;8.75;2.50;;;;;;;18.34;51.62;102214.06;5024584;28;20511;-49
2022/06/13 12:00:53;;;;;;;9.38;2.30;;;;;;;18.39;50.75;102215.97;5027475;28;20799;-48
2022/06/13 12:03:58;;;;;;;6.05;1.92;;;;;;;18.43;48.80;102230.84;5029927;28;20057;-50
2022/06/13 12:06:47;;;;;;;5.15;1.67;;;;;;;18.47;47.30;102212.59;5022341;28;20053;-48
2022/06/13 12:09:36;;;;;;;5.55;1.63;;;;;;;18.44;45.11;102207.66;5031783;28;20056;-50
2022/06/13 12:12:26;;;;;;;6.57;2.00;;;;;;;18.51;47.12;102205.41;5012624;28;20531;-49
2022/06/13 12:15:15;;;;;;;10.82;2.63;;;;;;;18.53;48.80;102198.47;5033314;28;20050;-48
2022/06/13 12:18:43;;;;;;;6.75;2.10;;;;;;;18.59;46.63;102209.47;5020465;28;20119;-51
2022/06/13 12:22:06;;;;;;;6.93;2.22;;;;;;;18.47;45.86;102207.91;5025802;28;20556;-50
2022/06/13 12:25:20;;;;;;;7.15;2.05;;;;;;;18.43;48.16;102222.56;5019359;28;20044;-50
2022/06/13 12:28:11;;;;;;;7.10;2.10;;;;;;;18.44;49.19;102224.22;5032116;28;20493;-55
2022/06/13 12:31:01;;;;;;;7.43;2.03;;;;;;;18.44;48.16;102218.69;5016893;28;20054;-50
2022/06/13 12:34:17;;;;;;;7.50;1.98;;;;;;;18.45;47.85;102225.88;5031533;28;20041;-53
2022/06/13 12:37:34;;;;;;;8.27;2.10;;;;;;;18.66;47.78;102221.81;5027186;28;20144;-48
2022/06/13 12:40:31;;;;;;;9.00;2.13;;;;;;;18.51;47.03;102228.28;5029276;28;20483;-46
2022/06/13 12:43:42;;;;;;;7.35;1.90;;;;;;;18.38;45.64;102234.47;5030795;28;20045;-47
2022/06/13 12:46:56;;;;;;;7.07;2.53;;;;;;;18.29;46.34;102234.25;5020211;28;20046;-50
2022/06/13 12:49:59;;;;;;;7.07;2.35;;;;;;;18.34;47.24;102241.66;5025020;28;20052;-49
2022/06/13 12:53:06;;;;;;;11.43;2.50;;;;;;;18.43;47.16;102236.38;5033909;28;20045;-49
2022/06/13 12:56:20;;;;;;;12.73;2.67;;;;;;;18.47;46.52;102242.94;5026985;28;20113;-49
2022/06/13 12:59:29;;;;;;;6.20;2.30;;;;;;;18.33;45.35;102241.94;5031801;28;20034;-48
2022/06/13 13:02:46;;;;;;;6.68;2.15;;;;;;;18.30;45.81;102233.16;5033172;28;20076;-47
2022/06/13 13:06:02;;;;;;;7.05;2.10;;;;;;;18.40;44.92;102236.94;5022032;28;20046;-49
2022/06/13 13:09:27;;;;;;;8.63;2.08;;;;;;;18.37;44.34;102240.28;5027502;28;20060;-47
2022/06/13 13:12:32;;;;;;;9.20;2.33;;;;;;;18.20;45.07;102238.72;5033132;28;20054;-47
2022/06/13 13:15:47;;;;;;;9.35;2.13;;;;;;;18.22;45.89;102233.75;5031800;28;20079;-47
2022/06/13 13:19:00;;;;;;;8.88;2.33;;;;;;;18.31;45.09;102237.53;5022167;28;20453;-49
2022/06/13 13:22:12;;;;;;;7.38;1.98;;;;;;;18.44;44.51;102262.84;5022277;28;20492;-49
2022/06/13 13:25:27;;;;;;;8.27;2.40;;;;;;;18.44;41.71;102251.81;5023549;28;20045;-50
2022/06/13 13:28:29;;;;;;;7.10;1.98;;;;;;;18.47;42.45;102242.94;5031264;28;20041;-48
2022/06/13 13:31:38;;;;;;;9.68;2.42;;;;;;;18.51;44.36;102241.28;5031582;28;20385;-51
2022/06/13 13:34:45;;;;;;;8.00;2.33;;;;;;;18.57;41.81;102244.81;5029153;28;20045;-48
2022/06/13 13:37:39;;;;;;;6.72;2.45;;;;;;;18.63;42.28;102238.16;5020598;28;20049;-46
2022/06/13 13:40:51;;;;;;;6.10;1.88;;;;;;;18.78;42.93;102248.28;5021612;28;20053;-49
2022/06/13 13:43:53;;;;;;;7.07;2.15;;;;;;;18.88;41.91;102242.66;5026988;28;20084;-48
2022/06/13 13:46:58;;;;;;;4.32;1.83;;;;;;;18.77;42.32;102244.69;5030089;28;20072;-53
2022/06/13 13:50:19;;;;;;;9.10;2.03;;;;;;;18.72;42.94;102256.56;5023273;28;20056;-49
2022/06/13 13:53:09;;;;;;;6.60;2.13;;;;;;;18.73;43.96;102260.97;5017796;28;20046;-49
2022/06/13 13:56:08;;;;;;;5.72;1.75;;;;;;;18.70;44.32;102261.56;5016743;28;20152;-52
2022/06/13 13:58:57;;;;;;;10.30;2.55;;;;;;;18.60;43.21;102258.88;5036229;28;20044;-49